sensor_id;sensor_type;location;lat;lon;timestamp;P1;durP1;ratioP1;P2;durP2;ratioP2
22005;SDS011;11167;46.988;15.470;2023-02-02T00:01:26;1.22;;;0.88;;
22005;SDS011;11167;46.988;15.470;2023-02-02T00:03:27;0.88;;;0.70;;
22005;SDS011;11167;46.988;15.470;2023-02-02T00:05:29;1.10;;;0.80;;
22005;SDS011;11167;46.988;15.470;2023-02-02T00:07:30;1.30;;;0.90;;
22005;SDS011;11167;46.988;15.470;2023-02-02T00:09:32;1.32;;;0.98;;
22005;SDS011;11167;46.988;15.470;2023-02-02T00:11:33;1.12;;;0.93;;
22005;SDS011;11167;46.988;15.470;2023-02-02T00:13:34;1.27;;;0.98;;
22005;SDS011;11167;46.988;15.470;2023-02-02T00:15:35;1.98;;;1.27;;
22005;SDS011;11167;46.988;15.470;2023-02-02T00:17:36;3.15;;;1.10;;
22005;SDS011;11167;46.988;15.470;2023-02-02T00:19:38;2.47;;;1.00;;
22005;SDS011;11167;46.988;15.470;2023-02-02T00:21:40;1.57;;;0.95;;
22005;SDS011;11167;46.988;15.470;2023-02-02T00:23:42;1.22;;;0.95;;
22005;SDS011;11167;46.988;15.470;2023-02-02T00:25:43;0.90;;;0.80;;
22005;SDS011;11167;46.988;15.470;2023-02-02T00:27:44;1.32;;;0.90;;
22005;SDS011;11167;46.988;15.470;2023-02-02T00:29:45;1.80;;;0.80;;
22005;SDS011;11167;46.988;15.470;2023-02-02T00:31:47;1.15;;;0.80;;
22005;SDS011;11167;46.988;15.470;2023-02-02T00:33:49;1.47;;;0.80;;
22005;SDS011;11167;46.988;15.470;2023-02-02T00:38:48;1.40;;;0.90;;
22005;SDS011;11167;46.988;15.470;2023-02-02T00:40:49;1.32;;;0.90;;
22005;SDS011;11167;46.988;15.470;2023-02-02T00:42:51;1.35;;;0.93;;
22005;SDS011;11167;46.988;15.470;2023-02-02T00:44:52;1.47;;;0.78;;
22005;SDS011;11167;46.988;15.470;2023-02-02T00:47:12;1.17;;;0.88;;
22005;SDS011;11167;46.988;15.470;2023-02-02T00:49:13;1.27;;;0.93;;
22005;SDS011;11167;46.988;15.470;2023-02-02T00:51:14;1.75;;;0.88;;
22005;SDS011;11167;46.988;15.470;2023-02-02T00:53:15;1.00;;;0.90;;
22005;SDS011;11167;46.988;15.470;2023-02-02T00:55:16;1.25;;;0.90;;
22005;SDS011;11167;46.988;15.470;2023-02-02T00:57:20;1.25;;;0.85;;
22005;SDS011;11167;46.988;15.470;2023-02-02T00:59:21;1.12;;;0.90;;
22005;SDS011;11167;46.988;15.470;2023-02-02T01:01:22;1.37;;;0.90;;
22005;SDS011;11167;46.988;15.470;2023-02-02T01:03:23;1.62;;;1.00;;
22005;SDS011;11167;46.988;15.470;2023-02-02T01:05:24;1.82;;;0.93;;
22005;SDS011;11167;46.988;15.470;2023-02-02T01:07:26;0.85;;;0.70;;
22005;SDS011;11167;46.988;15.470;2023-02-02T01:09:27;1.47;;;1.07;;
22005;SDS011;11167;46.988;15.470;2023-02-02T01:11:28;1.15;;;0.78;;
22005;SDS011;11167;46.988;15.470;2023-02-02T01:13:30;1.07;;;0.70;;
22005;SDS011;11167;46.988;15.470;2023-02-02T01:15:31;2.15;;;1.05;;
22005;SDS011;11167;46.988;15.470;2023-02-02T01:17:32;1.12;;;0.95;;
22005;SDS011;11167;46.988;15.470;2023-02-02T01:19:34;2.25;;;0.82;;
22005;SDS011;11167;46.988;15.470;2023-02-02T01:21:35;1.22;;;0.72;;
22005;SDS011;11167;46.988;15.470;2023-02-02T01:23:36;1.60;;;0.80;;
22005;SDS011;11167;46.988;15.470;2023-02-02T01:25:38;1.00;;;0.65;;
22005;SDS011;11167;46.988;15.470;2023-02-02T01:27:39;0.88;;;0.70;;
22005;SDS011;11167;46.988;15.470;2023-02-02T01:29:41;1.20;;;0.80;;
22005;SDS011;11167;46.988;15.470;2023-02-02T01:31:42;1.02;;;0.80;;
22005;SDS011;11167;46.988;15.470;2023-02-02T01:33:43;1.30;;;0.70;;
22005;SDS011;11167;46.988;15.470;2023-02-02T01:35:54;0.70;;;0.50;;
22005;SDS011;11167;46.988;15.470;2023-02-02T01:37:52;1.05;;;0.70;;
22005;SDS011;11167;46.988;15.470;2023-02-02T01:39:53;1.42;;;0.75;;
22005;SDS011;11167;46.988;15.470;2023-02-02T01:41:54;0.72;;;0.57;;
22005;SDS011;11167;46.988;15.470;2023-02-02T01:43:57;1.30;;;0.50;;
22005;SDS011;11167;46.988;15.470;2023-02-02T01:48:01;0.55;;;0.50;;
22005;SDS011;11167;46.988;15.470;2023-02-02T01:50:02;0.80;;;0.50;;
22005;SDS011;11167;46.988;15.470;2023-02-02T01:52:05;0.70;;;0.50;;
22005;SDS011;11167;46.988;15.470;2023-02-02T01:54:11;1.30;;;0.60;;
22005;SDS011;11167;46.988;15.470;2023-02-02T01:56:18;0.80;;;0.60;;
22005;SDS011;11167;46.988;15.470;2023-02-02T01:58:22;0.50;;;0.40;;
22005;SDS011;11167;46.988;15.470;2023-02-02T02:00:29;0.57;;;0.47;;
22005;SDS011;11167;46.988;15.470;2023-02-02T02:02:30;0.40;;;0.40;;
22005;SDS011;11167;46.988;15.470;2023-02-02T02:04:32;0.45;;;0.45;;
22005;SDS011;11167;46.988;15.470;2023-02-02T02:06:34;0.47;;;0.47;;
22005;SDS011;11167;46.988;15.470;2023-02-02T02:08:37;0.70;;;0.50;;
22005;SDS011;11167;46.988;15.470;2023-02-02T02:10:40;0.80;;;0.40;;
22005;SDS011;11167;46.988;15.470;2023-02-02T02:12:41;0.75;;;0.40;;
22005;SDS011;11167;46.988;15.470;2023-02-02T02:14:43;0.62;;;0.42;;
22005;SDS011;11167;46.988;15.470;2023-02-02T02:31:51;0.95;;;0.40;;
22005;SDS011;11167;46.988;15.470;2023-02-02T02:34:06;0.65;;;0.40;;
22005;SDS011;11167;46.988;15.470;2023-02-02T02:36:09;0.70;;;0.50;;
22005;SDS011;11167;46.988;15.470;2023-02-02T02:38:36;0.35;;;0.28;;
22005;SDS011;11167;46.988;15.470;2023-02-02T02:40:50;1.05;;;0.50;;
22005;SDS011;11167;46.988;15.470;2023-02-02T02:43:04;0.82;;;0.42;;
22005;SDS011;11167;46.988;15.470;2023-02-02T02:45:04;0.40;;;0.30;;
22005;SDS011;11167;46.988;15.470;2023-02-02T02:47:08;0.45;;;0.30;;
22005;SDS011;11167;46.988;15.470;2023-02-02T02:49:11;0.57;;;0.20;;
22005;SDS011;11167;46.988;15.470;2023-02-02T02:53:48;0.65;;;0.35;;
22005;SDS011;11167;46.988;15.470;2023-02-02T02:58:21;0.55;;;0.30;;
22005;SDS011;11167;46.988;15.470;2023-02-02T03:00:34;0.25;;;0.25;;
22005;SDS011;11167;46.988;15.470;2023-02-02T03:04:49;0.60;;;0.20;;
22005;SDS011;11167;46.988;15.470;2023-02-02T03:06:59;0.60;;;0.30;;
22005;SDS011;11167;46.988;15.470;2023-02-02T03:09:11;1.45;;;0.82;;
22005;SDS011;11167;46.988;15.470;2023-02-02T03:11:15;0.65;;;0.30;;
22005;SDS011;11167;46.988;15.470;2023-02-02T03:13:17;0.00;;;0.00;;
22005;SDS011;11167;46.988;15.470;2023-02-02T03:15:18;0.88;;;0.30;;
22005;SDS011;11167;46.988;15.470;2023-02-02T03:17:19;0.62;;;0.30;;
22005;SDS011;11167;46.988;15.470;2023-02-02T03:19:21;1.30;;;0.30;;
22005;SDS011;11167;46.988;15.470;2023-02-02T03:21:22;0.35;;;0.20;;
22005;SDS011;11167;46.988;15.470;2023-02-02T03:23:23;0.25;;;0.25;;
22005;SDS011;11167;46.988;15.470;2023-02-02T03:25:24;0.20;;;0.20;;
22005;SDS011;11167;46.988;15.470;2023-02-02T03:27:26;0.50;;;0.20;;
22005;SDS011;11167;46.988;15.470;2023-02-02T03:29:27;0.17;;;0.17;;
22005;SDS011;11167;46.988;15.470;2023-02-02T03:31:29;0.47;;;0.20;;
22005;SDS011;11167;46.988;15.470;2023-02-02T03:33:32;0.20;;;0.20;;
22005;SDS011;11167;46.988;15.470;2023-02-02T03:35:36;0.55;;;0.15;;
22005;SDS011;11167;46.988;15.470;2023-02-02T03:37:37;0.53;;;0.30;;
22005;SDS011;11167;46.988;15.470;2023-02-02T03:39:38;0.33;;;0.20;;
22005;SDS011;11167;46.988;15.470;2023-02-02T03:41:39;0.10;;;0.10;;
22005;SDS011;11167;46.988;15.470;2023-02-02T03:43:41;0.13;;;0.13;;
22005;SDS011;11167;46.988;15.470;2023-02-02T03:45:42;0.20;;;0.20;;
22005;SDS011;11167;46.988;15.470;2023-02-02T03:47:43;1.17;;;0.30;;
22005;SDS011;11167;46.988;15.470;2023-02-02T03:49:44;0.17;;;0.17;;
22005;SDS011;11167;46.988;15.470;2023-02-02T03:51:45;0.20;;;0.20;;
22005;SDS011;11167;46.988;15.470;2023-02-02T03:53:46;0.72;;;0.30;;
22005;SDS011;11167;46.988;15.470;2023-02-02T03:55:48;0.57;;;0.45;;
22005;SDS011;11167;46.988;15.470;2023-02-02T03:57:49;0.10;;;0.10;;
22005;SDS011;11167;46.988;15.470;2023-02-02T03:59:50;0.35;;;0.23;;
22005;SDS011;11167;46.988;15.470;2023-02-02T04:01:51;0.40;;;0.13;;
22005;SDS011;11167;46.988;15.470;2023-02-02T04:03:53;1.35;;;0.30;;
22005;SDS011;11167;46.988;15.470;2023-02-02T04:05:55;0.95;;;0.20;;
22005;SDS011;11167;46.988;15.470;2023-02-02T04:07:56;1.22;;;0.40;;
22005;SDS011;11167;46.988;15.470;2023-02-02T04:09:57;0.28;;;0.20;;
22005;SDS011;11167;46.988;15.470;2023-02-02T04:11:59;0.28;;;0.25;;
22005;SDS011;11167;46.988;15.470;2023-02-02T04:14:00;1.35;;;0.30;;
22005;SDS011;11167;46.988;15.470;2023-02-02T04:16:01;0.62;;;0.40;;
22005;SDS011;11167;46.988;15.470;2023-02-02T04:18:03;0.35;;;0.20;;
22005;SDS011;11167;46.988;15.470;2023-02-02T04:20:05;0.40;;;0.20;;
22005;SDS011;11167;46.988;15.470;2023-02-02T04:22:07;0.20;;;0.20;;
22005;SDS011;11167;46.988;15.470;2023-02-02T04:24:12;0.45;;;0.17;;
22005;SDS011;11167;46.988;15.470;2023-02-02T04:26:14;0.45;;;0.20;;
22005;SDS011;11167;46.988;15.470;2023-02-02T04:28:15;0.25;;;0.20;;
22005;SDS011;11167;46.988;15.470;2023-02-02T04:30:17;1.20;;;0.30;;
22005;SDS011;11167;46.988;15.470;2023-02-02T04:32:19;0.42;;;0.30;;
22005;SDS011;11167;46.988;15.470;2023-02-02T04:34:20;1.22;;;0.37;;
22005;SDS011;11167;46.988;15.470;2023-02-02T04:36:21;0.33;;;0.20;;
22005;SDS011;11167;46.988;15.470;2023-02-02T04:38:23;0.50;;;0.20;;
22005;SDS011;11167;46.988;15.470;2023-02-02T04:40:24;0.57;;;0.30;;
22005;SDS011;11167;46.988;15.470;2023-02-02T04:42:26;0.37;;;0.30;;
22005;SDS011;11167;46.988;15.470;2023-02-02T04:44:31;0.37;;;0.30;;
22005;SDS011;11167;46.988;15.470;2023-02-02T04:46:32;0.30;;;0.28;;
22005;SDS011;11167;46.988;15.470;2023-02-02T04:48:33;0.35;;;0.25;;
22005;SDS011;11167;46.988;15.470;2023-02-02T04:50:35;0.47;;;0.30;;
22005;SDS011;11167;46.988;15.470;2023-02-02T04:52:36;0.15;;;0.15;;
22005;SDS011;11167;46.988;15.470;2023-02-02T04:54:37;0.68;;;0.30;;
22005;SDS011;11167;46.988;15.470;2023-02-02T04:56:38;0.62;;;0.20;;
22005;SDS011;11167;46.988;15.470;2023-02-02T04:58:40;0.53;;;0.30;;
22005;SDS011;11167;46.988;15.470;2023-02-02T05:00:41;0.25;;;0.20;;
22005;SDS011;11167;46.988;15.470;2023-02-02T05:02:42;0.72;;;0.30;;
22005;SDS011;11167;46.988;15.470;2023-02-02T05:04:44;0.47;;;0.30;;
22005;SDS011;11167;46.988;15.470;2023-02-02T05:06:46;0.25;;;0.25;;
22005;SDS011;11167;46.988;15.470;2023-02-02T05:08:47;0.62;;;0.30;;
22005;SDS011;11167;46.988;15.470;2023-02-02T05:10:48;0.42;;;0.30;;
22005;SDS011;11167;46.988;15.470;2023-02-02T05:12:51;0.47;;;0.30;;
22005;SDS011;11167;46.988;15.470;2023-02-02T05:14:53;0.40;;;0.30;;
22005;SDS011;11167;46.988;15.470;2023-02-02T05:16:54;0.47;;;0.30;;
22005;SDS011;11167;46.988;15.470;2023-02-02T05:18:55;0.40;;;0.20;;
22005;SDS011;11167;46.988;15.470;2023-02-02T05:21:01;0.50;;;0.30;;
22005;SDS011;11167;46.988;15.470;2023-02-02T05:23:03;0.60;;;0.37;;
22005;SDS011;11167;46.988;15.470;2023-02-02T05:25:05;0.20;;;0.20;;
22005;SDS011;11167;46.988;15.470;2023-02-02T05:27:06;0.30;;;0.20;;
22005;SDS011;11167;46.988;15.470;2023-02-02T05:29:07;0.20;;;0.20;;
22005;SDS011;11167;46.988;15.470;2023-02-02T05:31:09;0.20;;;0.20;;
22005;SDS011;11167;46.988;15.470;2023-02-02T05:33:10;0.98;;;0.30;;
22005;SDS011;11167;46.988;15.470;2023-02-02T05:35:11;0.53;;;0.25;;
22005;SDS011;11167;46.988;15.470;2023-02-02T05:37:12;0.20;;;0.20;;
22005;SDS011;11167;46.988;15.470;2023-02-02T05:39:13;0.20;;;0.20;;
22005;SDS011;11167;46.988;15.470;2023-02-02T05:41:15;0.65;;;0.15;;
22005;SDS011;11167;46.988;15.470;2023-02-02T05:43:16;0.20;;;0.20;;
22005;SDS011;11167;46.988;15.470;2023-02-02T05:45:17;0.10;;;0.10;;
22005;SDS011;11167;46.988;15.470;2023-02-02T05:47:18;0.40;;;0.28;;
22005;SDS011;11167;46.988;15.470;2023-02-02T05:49:20;0.20;;;0.20;;
22005;SDS011;11167;46.988;15.470;2023-02-02T05:51:22;0.47;;;0.20;;
22005;SDS011;11167;46.988;15.470;2023-02-02T05:53:29;0.30;;;0.23;;
22005;SDS011;11167;46.988;15.470;2023-02-02T05:55:31;0.10;;;0.10;;
22005;SDS011;11167;46.988;15.470;2023-02-02T05:57:32;0.20;;;0.20;;
22005;SDS011;11167;46.988;15.470;2023-02-02T05:59:33;0.20;;;0.20;;
22005;SDS011;11167;46.988;15.470;2023-02-02T06:01:34;0.20;;;0.10;;
22005;SDS011;11167;46.988;15.470;2023-02-02T06:03:35;0.20;;;0.20;;
22005;SDS011;11167;46.988;15.470;2023-02-02T06:05:37;0.20;;;0.20;;
22005;SDS011;11167;46.988;15.470;2023-02-02T06:07:38;0.47;;;0.30;;
22005;SDS011;11167;46.988;15.470;2023-02-02T06:09:40;0.30;;;0.30;;
22005;SDS011;11167;46.988;15.470;2023-02-02T06:11:43;0.60;;;0.30;;
22005;SDS011;11167;46.988;15.470;2023-02-02T06:13:45;0.20;;;0.20;;
22005;SDS011;11167;46.988;15.470;2023-02-02T06:15:46;0.57;;;0.30;;
22005;SDS011;11167;46.988;15.470;2023-02-02T06:17:47;0.57;;;0.30;;
22005;SDS011;11167;46.988;15.470;2023-02-02T06:19:48;0.20;;;0.20;;
22005;SDS011;11167;46.988;15.470;2023-02-02T06:21:49;0.35;;;0.23;;
22005;SDS011;11167;46.988;15.470;2023-02-02T06:23:51;0.37;;;0.30;;
22005;SDS011;11167;46.988;15.470;2023-02-02T06:25:52;0.45;;;0.30;;
22005;SDS011;11167;46.988;15.470;2023-02-02T06:27:57;0.40;;;0.28;;
22005;SDS011;11167;46.988;15.470;2023-02-02T06:29:59;0.20;;;0.15;;
22005;SDS011;11167;46.988;15.470;2023-02-02T06:32:00;0.53;;;0.30;;
22005;SDS011;11167;46.988;15.470;2023-02-02T06:34:01;0.40;;;0.30;;
22005;SDS011;11167;46.988;15.470;2023-02-02T06:36:03;0.20;;;0.10;;
22005;SDS011;11167;46.988;15.470;2023-02-02T06:38:06;0.33;;;0.30;;
22005;SDS011;11167;46.988;15.470;2023-02-02T06:40:07;0.50;;;0.40;;
22005;SDS011;11167;46.988;15.470;2023-02-02T06:42:09;1.27;;;0.42;;
22005;SDS011;11167;46.988;15.470;2023-02-02T06:44:11;0.55;;;0.35;;
22005;SDS011;11167;46.988;15.470;2023-02-02T06:46:15;2.65;;;0.80;;
22005;SDS011;11167;46.988;15.470;2023-02-02T06:48:16;0.45;;;0.40;;
22005;SDS011;11167;46.988;15.470;2023-02-02T06:50:17;1.17;;;0.60;;
22005;SDS011;11167;46.988;15.470;2023-02-02T06:52:18;0.68;;;0.30;;
22005;SDS011;11167;46.988;15.470;2023-02-02T06:54:20;0.53;;;0.40;;
22005;SDS011;11167;46.988;15.470;2023-02-02T06:56:21;0.50;;;0.40;;
22005;SDS011;11167;46.988;15.470;2023-02-02T06:58:22;0.70;;;0.50;;
22005;SDS011;11167;46.988;15.470;2023-02-02T07:00:23;0.60;;;0.40;;
22005;SDS011;11167;46.988;15.470;2023-02-02T07:02:25;0.50;;;0.40;;
22005;SDS011;11167;46.988;15.470;2023-02-02T07:04:27;0.57;;;0.50;;
22005;SDS011;11167;46.988;15.470;2023-02-02T07:06:28;0.47;;;0.33;;
22005;SDS011;11167;46.988;15.470;2023-02-02T07:08:29;0.62;;;0.47;;
22005;SDS011;11167;46.988;15.470;2023-02-02T07:10:30;0.78;;;0.50;;
22005;SDS011;11167;46.988;15.470;2023-02-02T07:12:32;1.22;;;0.60;;
22005;SDS011;11167;46.988;15.470;2023-02-02T07:14:33;1.55;;;0.80;;
22005;SDS011;11167;46.988;15.470;2023-02-02T07:16:34;1.72;;;1.07;;
22005;SDS011;11167;46.988;15.470;2023-02-02T07:18:35;2.20;;;1.30;;
22005;SDS011;11167;46.988;15.470;2023-02-02T07:20:36;2.10;;;1.67;;
22005;SDS011;11167;46.988;15.470;2023-02-02T07:22:38;2.90;;;1.95;;
22005;SDS011;11167;46.988;15.470;2023-02-02T07:24:40;2.83;;;2.12;;
22005;SDS011;11167;46.988;15.470;2023-02-02T07:26:41;3.20;;;2.20;;
22005;SDS011;11167;46.988;15.470;2023-02-02T07:28:42;4.30;;;2.67;;
22005;SDS011;11167;46.988;15.470;2023-02-02T07:30:43;4.05;;;2.92;;
22005;SDS011;11167;46.988;15.470;2023-02-02T07:32:45;4.50;;;3.00;;
22005;SDS011;11167;46.988;15.470;2023-02-02T07:34:47;5.62;;;3.35;;
22005;SDS011;11167;46.988;15.470;2023-02-02T07:36:48;4.60;;;3.10;;
22005;SDS011;11167;46.988;15.470;2023-02-02T07:38:50;4.75;;;3.12;;
22005;SDS011;11167;46.988;15.470;2023-02-02T07:40:59;3.50;;;2.70;;
22005;SDS011;11167;46.988;15.470;2023-02-02T07:43:02;4.20;;;2.47;;
22005;SDS011;11167;46.988;15.470;2023-02-02T07:45:04;3.33;;;2.40;;
22005;SDS011;11167;46.988;15.470;2023-02-02T07:47:05;3.47;;;2.20;;
22005;SDS011;11167;46.988;15.470;2023-02-02T07:49:08;2.15;;;1.60;;
22005;SDS011;11167;46.988;15.470;2023-02-02T07:51:15;2.55;;;1.60;;
22005;SDS011;11167;46.988;15.470;2023-02-02T07:53:17;2.58;;;1.40;;
22005;SDS011;11167;46.988;15.470;2023-02-02T07:55:18;1.40;;;0.90;;
22005;SDS011;11167;46.988;15.470;2023-02-02T07:57:20;2.00;;;1.22;;
22005;SDS011;11167;46.988;15.470;2023-02-02T07:59:21;1.22;;;0.98;;
22005;SDS011;11167;46.988;15.470;2023-02-02T08:01:22;1.22;;;1.00;;
22005;SDS011;11167;46.988;15.470;2023-02-02T08:03:25;0.88;;;0.60;;
22005;SDS011;11167;46.988;15.470;2023-02-02T08:05:26;0.90;;;0.70;;
22005;SDS011;11167;46.988;15.470;2023-02-02T08:07:28;2.05;;;1.05;;
22005;SDS011;11167;46.988;15.470;2023-02-02T08:09:31;1.42;;;0.62;;
22005;SDS011;11167;46.988;15.470;2023-02-02T08:11:32;1.27;;;0.78;;
22005;SDS011;11167;46.988;15.470;2023-02-02T08:13:34;1.05;;;0.78;;
22005;SDS011;11167;46.988;15.470;2023-02-02T08:15:35;1.25;;;0.90;;
22005;SDS011;11167;46.988;15.470;2023-02-02T08:17:36;0.95;;;0.80;;
22005;SDS011;11167;46.988;15.470;2023-02-02T08:19:38;1.50;;;0.82;;
22005;SDS011;11167;46.988;15.470;2023-02-02T08:21:39;1.62;;;0.75;;
22005;SDS011;11167;46.988;15.470;2023-02-02T08:23:40;1.30;;;0.82;;
22005;SDS011;11167;46.988;15.470;2023-02-02T08:25:42;1.57;;;0.90;;
22005;SDS011;11167;46.988;15.470;2023-02-02T08:27:43;1.30;;;0.90;;
22005;SDS011;11167;46.988;15.470;2023-02-02T08:29:44;1.30;;;0.85;;
22005;SDS011;11167;46.988;15.470;2023-02-02T08:31:46;1.10;;;0.80;;
22005;SDS011;11167;46.988;15.470;2023-02-02T08:33:47;1.22;;;1.00;;
22005;SDS011;11167;46.988;15.470;2023-02-02T08:35:48;1.15;;;0.93;;
22005;SDS011;11167;46.988;15.470;2023-02-02T08:37:49;2.12;;;0.80;;
22005;SDS011;11167;46.988;15.470;2023-02-02T08:39:50;1.45;;;0.70;;
22005;SDS011;11167;46.988;15.470;2023-02-02T08:41:53;1.32;;;0.75;;
22005;SDS011;11167;46.988;15.470;2023-02-02T08:43:56;1.17;;;0.72;;
22005;SDS011;11167;46.988;15.470;2023-02-02T08:45:58;1.00;;;0.90;;
22005;SDS011;11167;46.988;15.470;2023-02-02T08:47:59;0.80;;;0.57;;
22005;SDS011;11167;46.988;15.470;2023-02-02T08:50:00;0.98;;;0.70;;
22005;SDS011;11167;46.988;15.470;2023-02-02T08:52:01;1.25;;;0.72;;
22005;SDS011;11167;46.988;15.470;2023-02-02T08:54:02;0.90;;;0.60;;
22005;SDS011;11167;46.988;15.470;2023-02-02T08:56:08;0.62;;;0.55;;
22005;SDS011;11167;46.988;15.470;2023-02-02T08:58:10;1.22;;;0.80;;
22005;SDS011;11167;46.988;15.470;2023-02-02T09:00:12;0.88;;;0.50;;
22005;SDS011;11167;46.988;15.470;2023-02-02T09:02:14;1.07;;;0.80;;
22005;SDS011;11167;46.988;15.470;2023-02-02T09:04:17;1.77;;;1.00;;
22005;SDS011;11167;46.988;15.470;2023-02-02T09:06:18;1.27;;;0.90;;
22005;SDS011;11167;46.988;15.470;2023-02-02T09:08:20;1.87;;;0.90;;
22005;SDS011;11167;46.988;15.470;2023-02-02T09:10:21;2.45;;;1.30;;
22005;SDS011;11167;46.988;15.470;2023-02-02T09:12:23;1.60;;;1.30;;
22005;SDS011;11167;46.988;15.470;2023-02-02T09:14:24;2.55;;;1.75;;
22005;SDS011;11167;46.988;15.470;2023-02-02T09:16:26;2.10;;;1.52;;
22005;SDS011;11167;46.988;15.470;2023-02-02T09:18:27;2.75;;;1.92;;
22005;SDS011;11167;46.988;15.470;2023-02-02T09:20:29;2.92;;;1.60;;
22005;SDS011;11167;46.988;15.470;2023-02-02T09:22:30;2.92;;;1.77;;
22005;SDS011;11167;46.988;15.470;2023-02-02T09:24:31;2.52;;;1.90;;
22005;SDS011;11167;46.988;15.470;2023-02-02T09:26:34;3.60;;;2.30;;
22005;SDS011;11167;46.988;15.470;2023-02-02T09:28:35;3.40;;;2.20;;
22005;SDS011;11167;46.988;15.470;2023-02-02T09:30:38;3.10;;;2.22;;
22005;SDS011;11167;46.988;15.470;2023-02-02T09:32:39;2.55;;;2.05;;
22005;SDS011;11167;46.988;15.470;2023-02-02T09:34:40;3.15;;;2.02;;
22005;SDS011;11167;46.988;15.470;2023-02-02T09:36:41;2.05;;;1.70;;
22005;SDS011;11167;46.988;15.470;2023-02-02T09:38:44;3.17;;;2.00;;
22005;SDS011;11167;46.988;15.470;2023-02-02T09:40:45;3.12;;;2.20;;
22005;SDS011;11167;46.988;15.470;2023-02-02T09:49:31;2.05;;;1.82;;
22005;SDS011;11167;46.988;15.470;2023-02-02T09:51:38;3.25;;;2.10;;
22005;SDS011;11167;46.988;15.470;2023-02-02T09:53:49;4.55;;;2.30;;
22005;SDS011;11167;46.988;15.470;2023-02-02T09:55:51;3.52;;;2.33;;
22005;SDS011;11167;46.988;15.470;2023-02-02T09:59:58;3.70;;;2.33;;
22005;SDS011;11167;46.988;15.470;2023-02-02T10:02:02;2.65;;;2.20;;
22005;SDS011;11167;46.988;15.470;2023-02-02T10:04:12;3.98;;;2.15;;
22005;SDS011;11167;46.988;15.470;2023-02-02T10:08:47;2.27;;;1.92;;
22005;SDS011;11167;46.988;15.470;2023-02-02T10:10:39;2.47;;;1.92;;
22005;SDS011;11167;46.988;15.470;2023-02-02T10:13:24;3.00;;;2.22;;
22005;SDS011;11167;46.988;15.470;2023-02-02T10:17:21;2.65;;;2.00;;
22005;SDS011;11167;46.988;15.470;2023-02-02T10:19:37;3.25;;;2.27;;
22005;SDS011;11167;46.988;15.470;2023-02-02T10:24:02;3.27;;;2.20;;
22005;SDS011;11167;46.988;15.470;2023-02-02T10:26:17;2.80;;;2.17;;
22005;SDS011;11167;46.988;15.470;2023-02-02T10:28:28;3.87;;;2.25;;
22005;SDS011;11167;46.988;15.470;2023-02-02T10:30:43;3.10;;;2.30;;
22005;SDS011;11167;46.988;15.470;2023-02-02T10:32:48;2.42;;;1.92;;
22005;SDS011;11167;46.988;15.470;2023-02-02T10:40:08;2.65;;;1.95;;
22005;SDS011;11167;46.988;15.470;2023-02-02T10:42:24;2.45;;;1.90;;
22005;SDS011;11167;46.988;15.470;2023-02-02T10:44:33;2.42;;;1.90;;
22005;SDS011;11167;46.988;15.470;2023-02-02T10:46:51;2.20;;;1.92;;
22005;SDS011;11167;46.988;15.470;2023-02-02T10:49:40;2.12;;;1.75;;
22005;SDS011;11167;46.988;15.470;2023-02-02T10:51:06;2.55;;;1.98;;
22005;SDS011;11167;46.988;15.470;2023-02-02T10:53:13;2.80;;;1.75;;
22005;SDS011;11167;46.988;15.470;2023-02-02T10:55:18;1.87;;;1.62;;
22005;SDS011;11167;46.988;15.470;2023-02-02T10:59:35;2.00;;;1.50;;
22005;SDS011;11167;46.988;15.470;2023-02-02T11:01:39;2.00;;;1.50;;
22005;SDS011;11167;46.988;15.470;2023-02-02T11:03:41;2.17;;;1.77;;
22005;SDS011;11167;46.988;15.470;2023-02-02T11:05:42;2.40;;;1.60;;
22005;SDS011;11167;46.988;15.470;2023-02-02T11:08:04;2.33;;;1.52;;
22005;SDS011;11167;46.988;15.470;2023-02-02T11:10:06;1.60;;;1.50;;
22005;SDS011;11167;46.988;15.470;2023-02-02T11:12:12;2.25;;;1.60;;
22005;SDS011;11167;46.988;15.470;2023-02-02T11:16:30;2.62;;;1.82;;
22005;SDS011;11167;46.988;15.470;2023-02-02T11:18:40;1.72;;;1.30;;
22005;SDS011;11167;46.988;15.470;2023-02-02T11:20:42;2.20;;;1.72;;
22005;SDS011;11167;46.988;15.470;2023-02-02T11:22:45;1.77;;;1.47;;
22005;SDS011;11167;46.988;15.470;2023-02-02T11:24:47;2.27;;;1.50;;
22005;SDS011;11167;46.988;15.470;2023-02-02T11:26:50;1.40;;;1.20;;
22005;SDS011;11167;46.988;15.470;2023-02-02T11:29:03;2.25;;;1.50;;
22005;SDS011;11167;46.988;15.470;2023-02-02T11:31:04;2.30;;;1.47;;
22005;SDS011;11167;46.988;15.470;2023-02-02T11:35:32;1.50;;;1.37;;
22005;SDS011;11167;46.988;15.470;2023-02-02T11:37:34;1.85;;;1.50;;
22005;SDS011;11167;46.988;15.470;2023-02-02T11:39:41;1.82;;;1.47;;
22005;SDS011;11167;46.988;15.470;2023-02-02T11:41:43;1.62;;;1.30;;
22005;SDS011;11167;46.988;15.470;2023-02-02T11:43:51;1.62;;;1.27;;
22005;SDS011;11167;46.988;15.470;2023-02-02T11:45:55;1.65;;;1.15;;
22005;SDS011;11167;46.988;15.470;2023-02-02T11:48:00;2.65;;;1.45;;
22005;SDS011;11167;46.988;15.470;2023-02-02T11:50:03;3.27;;;1.45;;
22005;SDS011;11167;46.988;15.470;2023-02-02T11:52:06;1.55;;;1.35;;
22005;SDS011;11167;46.988;15.470;2023-02-02T11:56:24;1.47;;;1.30;;
22005;SDS011;11167;46.988;15.470;2023-02-02T11:58:27;1.77;;;1.40;;
22005;SDS011;11167;46.988;15.470;2023-02-02T12:00:29;2.25;;;1.22;;
22005;SDS011;11167;46.988;15.470;2023-02-02T12:02:33;1.90;;;1.40;;
22005;SDS011;11167;46.988;15.470;2023-02-02T12:04:34;1.85;;;1.45;;
22005;SDS011;11167;46.988;15.470;2023-02-02T12:06:36;2.12;;;1.32;;
22005;SDS011;11167;46.988;15.470;2023-02-02T12:08:38;1.32;;;1.10;;
22005;SDS011;11167;46.988;15.470;2023-02-02T12:13:07;1.70;;;1.20;;
22005;SDS011;11167;46.988;15.470;2023-02-02T12:15:14;1.57;;;1.40;;
22005;SDS011;11167;46.988;15.470;2023-02-02T12:17:24;2.08;;;1.40;;
22005;SDS011;11167;46.988;15.470;2023-02-02T12:19:46;1.40;;;1.20;;
22005;SDS011;11167;46.988;15.470;2023-02-02T12:21:49;1.17;;;1.07;;
22005;SDS011;11167;46.988;15.470;2023-02-02T12:24:10;1.80;;;1.20;;
22005;SDS011;11167;46.988;15.470;2023-02-02T12:26:18;1.45;;;1.27;;
22005;SDS011;11167;46.988;15.470;2023-02-02T12:28:32;1.62;;;1.30;;
22005;SDS011;11167;46.988;15.470;2023-02-02T12:31:02;1.10;;;1.00;;
22005;SDS011;11167;46.988;15.470;2023-02-02T12:33:38;1.62;;;1.10;;
22005;SDS011;11167;46.988;15.470;2023-02-02T12:38:11;1.87;;;1.20;;
22005;SDS011;11167;46.988;15.470;2023-02-02T12:42:39;1.37;;;1.02;;
22005;SDS011;11167;46.988;15.470;2023-02-02T12:47:35;1.87;;;1.10;;
22005;SDS011;11167;46.988;15.470;2023-02-02T12:56:39;1.32;;;1.02;;
22005;SDS011;11167;46.988;15.470;2023-02-02T13:01:18;1.40;;;1.00;;
22005;SDS011;11167;46.988;15.470;2023-02-02T13:05:58;1.75;;;1.15;;
22005;SDS011;11167;46.988;15.470;2023-02-02T13:08:15;1.10;;;0.90;;
22005;SDS011;11167;46.988;15.470;2023-02-02T13:10:26;1.30;;;0.93;;
22005;SDS011;11167;46.988;15.470;2023-02-02T13:12:49;0.80;;;0.80;;
22005;SDS011;11167;46.988;15.470;2023-02-02T13:17:04;1.40;;;1.27;;
22005;SDS011;11167;46.988;15.470;2023-02-02T13:21:38;1.77;;;1.20;;
22005;SDS011;11167;46.988;15.470;2023-02-02T13:23:45;1.07;;;0.88;;
22005;SDS011;11167;46.988;15.470;2023-02-02T13:25:51;1.15;;;1.00;;
22005;SDS011;11167;46.988;15.470;2023-02-02T13:27:57;1.30;;;1.10;;
22005;SDS011;11167;46.988;15.470;2023-02-02T13:32:33;1.62;;;1.32;;
22005;SDS011;11167;46.988;15.470;2023-02-02T13:34:40;1.35;;;1.07;;
22005;SDS011;11167;46.988;15.470;2023-02-02T13:36:46;1.52;;;1.00;;
22005;SDS011;11167;46.988;15.470;2023-02-02T13:38:49;1.20;;;0.90;;